sensor_id;sensor_type;location;lat;lon;timestamp;P1;durP1;ratioP1;P2;durP2;ratioP2
7737;SDS011;29398;45.328;5.558;2022-08-19T00:00:28;2.50;;;2.30;;
7737;SDS011;29398;45.328;5.558;2022-08-19T00:01:29;3.08;;;2.50;;
7737;SDS011;29398;45.328;5.558;2022-08-19T00:02:32;2.65;;;2.25;;
7737;SDS011;29398;45.328;5.558;2022-08-19T00:03:33;2.50;;;2.30;;
7737;SDS011;29398;45.328;5.558;2022-08-19T00:04:37;2.70;;;2.50;;
7737;SDS011;29398;45.328;5.558;2022-08-19T00:05:40;2.75;;;2.53;;
7737;SDS011;29398;45.328;5.558;2022-08-19T00:06:43;3.47;;;2.25;;
7737;SDS011;29398;45.328;5.558;2022-08-19T00:07:47;2.40;;;2.30;;
7737;SDS011;29398;45.328;5.558;2022-08-19T00:08:48;2.75;;;2.55;;
7737;SDS011;29398;45.328;5.558;2022-08-19T00:09:51;2.78;;;2.58;;
7737;SDS011;29398;45.328;5.558;2022-08-19T00:10:52;2.45;;;2.33;;
7737;SDS011;29398;45.328;5.558;2022-08-19T00:11:55;2.55;;;2.35;;
7737;SDS011;29398;45.328;5.558;2022-08-19T00:12:58;2.78;;;2.40;;
7737;SDS011;29398;45.328;5.558;2022-08-19T00:14:00;2.40;;;2.30;;
7737;SDS011;29398;45.328;5.558;2022-08-19T00:15:02;2.45;;;2.33;;
7737;SDS011;29398;45.328;5.558;2022-08-19T00:16:05;2.75;;;2.45;;
7737;SDS011;29398;45.328;5.558;2022-08-19T00:17:07;3.10;;;2.53;;
7737;SDS011;29398;45.328;5.558;2022-08-19T00:18:10;2.95;;;2.75;;
7737;SDS011;29398;45.328;5.558;2022-08-19T00:19:11;3.13;;;2.55;;
7737;SDS011;29398;45.328;5.558;2022-08-19T00:20:17;3.88;;;2.78;;
7737;SDS011;29398;45.328;5.558;2022-08-19T00:21:20;2.50;;;2.30;;
7737;SDS011;29398;45.328;5.558;2022-08-19T00:22:22;2.70;;;2.50;;
7737;SDS011;29398;45.328;5.558;2022-08-19T00:23:23;3.15;;;2.38;;
7737;SDS011;29398;45.328;5.558;2022-08-19T00:24:25;2.58;;;2.38;;
7737;SDS011;29398;45.328;5.558;2022-08-19T00:25:27;3.10;;;2.90;;
7737;SDS011;29398;45.328;5.558;2022-08-19T00:26:29;4.75;;;2.90;;
7737;SDS011;29398;45.328;5.558;2022-08-19T00:27:31;2.83;;;2.63;;
7737;SDS011;29398;45.328;5.558;2022-08-19T00:28:33;2.60;;;2.50;;
7737;SDS011;29398;45.328;5.558;2022-08-19T00:29:35;2.55;;;2.35;;
7737;SDS011;29398;45.328;5.558;2022-08-19T00:30:38;2.85;;;2.65;;
7737;SDS011;29398;45.328;5.558;2022-08-19T00:31:39;2.60;;;2.40;;
7737;SDS011;29398;45.328;5.558;2022-08-19T00:32:42;2.60;;;2.40;;
7737;SDS011;29398;45.328;5.558;2022-08-19T00:33:43;2.88;;;2.65;;
7737;SDS011;29398;45.328;5.558;2022-08-19T00:34:45;4.90;;;2.85;;
7737;SDS011;29398;45.328;5.558;2022-08-19T00:35:47;3.42;;;2.50;;
7737;SDS011;29398;45.328;5.558;2022-08-19T00:36:50;2.70;;;2.50;;
7737;SDS011;29398;45.328;5.558;2022-08-19T00:37:51;3.00;;;2.28;;
7737;SDS011;29398;45.328;5.558;2022-08-19T00:38:53;3.13;;;2.80;;
7737;SDS011;29398;45.328;5.558;2022-08-19T00:39:54;2.95;;;2.75;;
7737;SDS011;29398;45.328;5.558;2022-08-19T00:40:57;2.85;;;2.65;;
7737;SDS011;29398;45.328;5.558;2022-08-19T00:41:59;2.67;;;2.47;;
7737;SDS011;29398;45.328;5.558;2022-08-19T00:43:01;2.60;;;2.40;;
7737;SDS011;29398;45.328;5.558;2022-08-19T00:44:08;2.80;;;2.60;;
7737;SDS011;29398;45.328;5.558;2022-08-19T00:45:13;4.07;;;2.60;;
7737;SDS011;29398;45.328;5.558;2022-08-19T00:46:17;2.83;;;2.63;;
7737;SDS011;29398;45.328;5.558;2022-08-19T00:47:20;2.55;;;2.38;;
7737;SDS011;29398;45.328;5.558;2022-08-19T00:48:21;3.22;;;2.65;;
7737;SDS011;29398;45.328;5.558;2022-08-19T00:49:25;3.78;;;2.72;;
7737;SDS011;29398;45.328;5.558;2022-08-19T00:50:31;3.03;;;2.80;;
7737;SDS011;29398;45.328;5.558;2022-08-19T00:51:35;2.85;;;2.65;;
7737;SDS011;29398;45.328;5.558;2022-08-19T00:52:37;3.10;;;2.80;;
7737;SDS011;29398;45.328;5.558;2022-08-19T00:53:45;3.15;;;2.85;;
7737;SDS011;29398;45.328;5.558;2022-08-19T00:54:46;2.35;;;2.25;;
7737;SDS011;29398;45.328;5.558;2022-08-19T00:55:50;3.17;;;2.90;;
7737;SDS011;29398;45.328;5.558;2022-08-19T00:56:55;2.60;;;2.40;;
7737;SDS011;29398;45.328;5.558;2022-08-19T00:57:58;2.85;;;2.65;;
7737;SDS011;29398;45.328;5.558;2022-08-19T00:59:02;2.90;;;2.60;;
7737;SDS011;29398;45.328;5.558;2022-08-19T01:00:10;4.65;;;2.78;;
7737;SDS011;29398;45.328;5.558;2022-08-19T01:01:13;3.10;;;2.90;;
7737;SDS011;29398;45.328;5.558;2022-08-19T01:02:16;2.95;;;2.70;;
7737;SDS011;29398;45.328;5.558;2022-08-19T01:03:18;2.88;;;2.67;;
7737;SDS011;29398;45.328;5.558;2022-08-19T01:04:22;2.97;;;2.78;;
7737;SDS011;29398;45.328;5.558;2022-08-19T01:05:24;2.83;;;2.63;;
7737;SDS011;29398;45.328;5.558;2022-08-19T01:06:28;3.58;;;2.75;;
7737;SDS011;29398;45.328;5.558;2022-08-19T01:07:34;2.95;;;2.75;;
7737;SDS011;29398;45.328;5.558;2022-08-19T01:08:36;3.10;;;2.88;;
7737;SDS011;29398;45.328;5.558;2022-08-19T01:09:37;3.05;;;2.85;;
7737;SDS011;29398;45.328;5.558;2022-08-19T01:10:40;3.20;;;3.00;;
7737;SDS011;29398;45.328;5.558;2022-08-19T01:11:44;3.20;;;3.00;;
7737;SDS011;29398;45.328;5.558;2022-08-19T01:12:47;3.00;;;2.80;;
7737;SDS011;29398;45.328;5.558;2022-08-19T01:13:49;3.63;;;3.00;;
7737;SDS011;29398;45.328;5.558;2022-08-19T01:14:52;2.92;;;2.72;;
7737;SDS011;29398;45.328;5.558;2022-08-19T01:15:56;3.33;;;3.13;;
7737;SDS011;29398;45.328;5.558;2022-08-19T01:17:01;3.47;;;2.92;;
7737;SDS011;29398;45.328;5.558;2022-08-19T01:18:04;3.20;;;3.00;;
7737;SDS011;29398;45.328;5.558;2022-08-19T01:19:10;2.97;;;2.78;;
7737;SDS011;29398;45.328;5.558;2022-08-19T01:20:20;3.33;;;3.03;;
7737;SDS011;29398;45.328;5.558;2022-08-19T01:21:25;3.47;;;3.28;;
7737;SDS011;29398;45.328;5.558;2022-08-19T01:22:32;2.85;;;2.65;;
7737;SDS011;29398;45.328;5.558;2022-08-19T01:23:39;3.25;;;2.95;;
7737;SDS011;29398;45.328;5.558;2022-08-19T01:24:42;3.60;;;3.30;;
7737;SDS011;29398;45.328;5.558;2022-08-19T01:25:46;3.17;;;2.97;;
7737;SDS011;29398;45.328;5.558;2022-08-19T01:26:51;3.30;;;3.10;;
7737;SDS011;29398;45.328;5.558;2022-08-19T01:27:53;3.13;;;2.92;;
7737;SDS011;29398;45.328;5.558;2022-08-19T01:28:56;2.97;;;2.78;;
7737;SDS011;29398;45.328;5.558;2022-08-19T01:30:01;3.08;;;2.88;;
7737;SDS011;29398;45.328;5.558;2022-08-19T01:31:03;3.35;;;3.05;;
7737;SDS011;29398;45.328;5.558;2022-08-19T01:32:05;3.17;;;2.92;;
7737;SDS011;29398;45.328;5.558;2022-08-19T01:33:07;3.00;;;2.80;;
7737;SDS011;29398;45.328;5.558;2022-08-19T01:34:10;3.22;;;3.03;;
7737;SDS011;29398;45.328;5.558;2022-08-19T01:35:11;3.13;;;2.83;;
7737;SDS011;29398;45.328;5.558;2022-08-19T01:36:16;3.15;;;2.95;;
7737;SDS011;29398;45.328;5.558;2022-08-19T01:37:24;3.30;;;3.03;;
7737;SDS011;29398;45.328;5.558;2022-08-19T01:38:28;3.17;;;2.97;;
7737;SDS011;29398;45.328;5.558;2022-08-19T01:39:30;2.97;;;2.78;;
7737;SDS011;29398;45.328;5.558;2022-08-19T01:40:33;3.08;;;2.88;;
7737;SDS011;29398;45.328;5.558;2022-08-19T01:41:36;4.50;;;3.10;;
7737;SDS011;29398;45.328;5.558;2022-08-19T01:42:39;3.20;;;3.00;;
7737;SDS011;29398;45.328;5.558;2022-08-19T01:43:40;2.95;;;2.75;;
7737;SDS011;29398;45.328;5.558;2022-08-19T01:44:42;2.97;;;2.75;;
7737;SDS011;29398;45.328;5.558;2022-08-19T01:45:44;3.00;;;2.80;;
7737;SDS011;29398;45.328;5.558;2022-08-19T01:46:47;3.25;;;3.05;;
7737;SDS011;29398;45.328;5.558;2022-08-19T01:47:48;2.90;;;2.70;;
7737;SDS011;29398;45.328;5.558;2022-08-19T01:48:50;2.88;;;2.67;;
7737;SDS011;29398;45.328;5.558;2022-08-19T01:49:51;2.90;;;2.70;;
7737;SDS011;29398;45.328;5.558;2022-08-19T01:50:54;2.80;;;2.60;;
7737;SDS011;29398;45.328;5.558;2022-08-19T01:51:55;3.22;;;2.92;;
7737;SDS011;29398;45.328;5.558;2022-08-19T01:52:59;2.95;;;2.75;;
7737;SDS011;29398;45.328;5.558;2022-08-19T01:54:02;3.13;;;2.92;;
7737;SDS011;29398;45.328;5.558;2022-08-19T01:55:06;2.78;;;2.58;;
7737;SDS011;29398;45.328;5.558;2022-08-19T01:56:08;2.80;;;2.67;;
7737;SDS011;29398;45.328;5.558;2022-08-19T01:57:11;3.05;;;2.85;;
7737;SDS011;29398;45.328;5.558;2022-08-19T01:58:15;2.83;;;2.65;;
7737;SDS011;29398;45.328;5.558;2022-08-19T01:59:22;2.80;;;2.60;;
7737;SDS011;29398;45.328;5.558;2022-08-19T02:00:25;2.60;;;2.40;;
7737;SDS011;29398;45.328;5.558;2022-08-19T02:01:29;2.80;;;2.60;;
7737;SDS011;29398;45.328;5.558;2022-08-19T02:02:32;2.60;;;2.40;;
7737;SDS011;29398;45.328;5.558;2022-08-19T02:03:34;2.50;;;2.30;;
7737;SDS011;29398;45.328;5.558;2022-08-19T02:04:35;2.70;;;2.50;;
7737;SDS011;29398;45.328;5.558;2022-08-19T02:05:39;2.25;;;2.15;;
7737;SDS011;29398;45.328;5.558;2022-08-19T02:06:41;3.60;;;2.33;;
7737;SDS011;29398;45.328;5.558;2022-08-19T02:07:43;2.55;;;2.35;;
7737;SDS011;29398;45.328;5.558;2022-08-19T02:08:45;2.70;;;2.50;;
7737;SDS011;29398;45.328;5.558;2022-08-19T02:09:49;2.47;;;2.25;;
7737;SDS011;29398;45.328;5.558;2022-08-19T02:10:50;2.30;;;2.20;;
7737;SDS011;29398;45.328;5.558;2022-08-19T02:11:52;3.80;;;2.25;;
7737;SDS011;29398;45.328;5.558;2022-08-19T02:12:53;2.00;;;1.90;;
7737;SDS011;29398;45.328;5.558;2022-08-19T02:13:55;3.85;;;2.50;;
7737;SDS011;29398;45.328;5.558;2022-08-19T02:14:58;2.58;;;2.38;;
7737;SDS011;29398;45.328;5.558;2022-08-19T02:16:01;2.65;;;2.45;;
7737;SDS011;29398;45.328;5.558;2022-08-19T02:17:03;2.40;;;2.30;;
7737;SDS011;29398;45.328;5.558;2022-08-19T02:18:04;2.92;;;2.30;;
7737;SDS011;29398;45.328;5.558;2022-08-19T02:19:08;2.72;;;2.53;;
7737;SDS011;29398;45.328;5.558;2022-08-19T02:20:10;2.60;;;2.40;;
7737;SDS011;29398;45.328;5.558;2022-08-19T02:21:13;2.53;;;2.33;;
7737;SDS011;29398;45.328;5.558;2022-08-19T02:22:15;2.70;;;2.50;;
7737;SDS011;29398;45.328;5.558;2022-08-19T02:23:17;2.42;;;2.28;;
7737;SDS011;29398;45.328;5.558;2022-08-19T02:24:19;2.53;;;2.40;;
7737;SDS011;29398;45.328;5.558;2022-08-19T02:25:22;2.75;;;2.55;;
7737;SDS011;29398;45.328;5.558;2022-08-19T02:26:23;2.88;;;2.28;;
7737;SDS011;29398;45.328;5.558;2022-08-19T02:27:26;2.72;;;2.53;;
7737;SDS011;29398;45.328;5.558;2022-08-19T02:28:28;2.65;;;2.45;;
7737;SDS011;29398;45.328;5.558;2022-08-19T02:29:30;2.17;;;2.08;;
7737;SDS011;29398;45.328;5.558;2022-08-19T02:30:31;2.60;;;2.50;;
7737;SDS011;29398;45.328;5.558;2022-08-19T02:31:33;3.13;;;2.60;;
7737;SDS011;29398;45.328;5.558;2022-08-19T02:32:34;3.00;;;2.80;;
7737;SDS011;29398;45.328;5.558;2022-08-19T02:33:36;2.70;;;2.50;;
7737;SDS011;29398;45.328;5.558;2022-08-19T02:34:37;3.15;;;2.63;;
7737;SDS011;29398;45.328;5.558;2022-08-19T02:35:40;2.70;;;2.50;;
7737;SDS011;29398;45.328;5.558;2022-08-19T02:36:42;2.92;;;2.72;;
7737;SDS011;29398;45.328;5.558;2022-08-19T02:37:44;2.83;;;2.63;;
7737;SDS011;29398;45.328;5.558;2022-08-19T02:39:04;3.25;;;3.05;;
7737;SDS011;29398;45.328;5.558;2022-08-19T02:40:05;3.13;;;2.83;;
7737;SDS011;29398;45.328;5.558;2022-08-19T02:41:11;2.50;;;2.30;;
7737;SDS011;29398;45.328;5.558;2022-08-19T02:42:15;2.45;;;2.35;;
7737;SDS011;29398;45.328;5.558;2022-08-19T02:43:16;2.88;;;2.67;;
7737;SDS011;29398;45.328;5.558;2022-08-19T02:44:20;2.72;;;2.53;;
7737;SDS011;29398;45.328;5.558;2022-08-19T02:45:22;2.75;;;2.58;;
7737;SDS011;29398;45.328;5.558;2022-08-19T02:46:24;3.10;;;2.90;;
7737;SDS011;29398;45.328;5.558;2022-08-19T02:47:28;3.08;;;2.88;;
7737;SDS011;29398;45.328;5.558;2022-08-19T02:48:29;3.22;;;2.80;;
7737;SDS011;29398;45.328;5.558;2022-08-19T02:49:33;3.15;;;2.92;;
7737;SDS011;29398;45.328;5.558;2022-08-19T02:50:36;2.72;;;2.47;;
7737;SDS011;29398;45.328;5.558;2022-08-19T02:51:40;2.92;;;2.72;;
7737;SDS011;29398;45.328;5.558;2022-08-19T02:52:43;2.90;;;2.70;;
7737;SDS011;29398;45.328;5.558;2022-08-19T02:53:45;3.30;;;3.00;;
7737;SDS011;29398;45.328;5.558;2022-08-19T02:54:46;2.80;;;2.58;;
7737;SDS011;29398;45.328;5.558;2022-08-19T02:55:48;3.00;;;2.65;;
7737;SDS011;29398;45.328;5.558;2022-08-19T02:56:51;2.75;;;2.55;;
7737;SDS011;29398;45.328;5.558;2022-08-19T02:57:53;3.60;;;2.50;;
7737;SDS011;29398;45.328;5.558;2022-08-19T02:58:54;3.03;;;2.83;;
7737;SDS011;29398;45.328;5.558;2022-08-19T02:59:57;3.17;;;2.60;;
7737;SDS011;29398;45.328;5.558;2022-08-19T03:00:58;2.70;;;2.50;;
7737;SDS011;29398;45.328;5.558;2022-08-19T03:02:00;2.80;;;2.60;;
7737;SDS011;29398;45.328;5.558;2022-08-19T03:03:01;2.55;;;2.40;;
7737;SDS011;29398;45.328;5.558;2022-08-19T03:04:04;2.75;;;2.55;;
7737;SDS011;29398;45.328;5.558;2022-08-19T03:05:07;2.60;;;2.47;;
7737;SDS011;29398;45.328;5.558;2022-08-19T03:06:12;2.80;;;2.60;;
7737;SDS011;29398;45.328;5.558;2022-08-19T03:07:15;3.13;;;2.92;;
7737;SDS011;29398;45.328;5.558;2022-08-19T03:08:18;2.90;;;2.70;;
7737;SDS011;29398;45.328;5.558;2022-08-19T03:09:19;2.78;;;2.58;;
7737;SDS011;29398;45.328;5.558;2022-08-19T03:10:21;2.42;;;2.33;;
7737;SDS011;29398;45.328;5.558;2022-08-19T03:11:23;2.65;;;2.40;;
7737;SDS011;29398;45.328;5.558;2022-08-19T03:12:29;2.65;;;2.40;;
7737;SDS011;29398;45.328;5.558;2022-08-19T03:13:30;2.35;;;2.25;;
7737;SDS011;29398;45.328;5.558;2022-08-19T03:14:33;2.40;;;2.30;;
7737;SDS011;29398;45.328;5.558;2022-08-19T03:15:34;2.72;;;2.22;;
7737;SDS011;29398;45.328;5.558;2022-08-19T03:16:42;2.30;;;2.10;;
7737;SDS011;29398;45.328;5.558;2022-08-19T03:17:45;2.10;;;2.00;;
7737;SDS011;29398;45.328;5.558;2022-08-19T03:18:47;2.40;;;2.30;;
7737;SDS011;29398;45.328;5.558;2022-08-19T03:19:48;2.20;;;2.10;;
7737;SDS011;29398;45.328;5.558;2022-08-19T03:20:51;2.30;;;2.20;;
7737;SDS011;29398;45.328;5.558;2022-08-19T03:21:54;2.45;;;2.25;;
7737;SDS011;29398;45.328;5.558;2022-08-19T03:22:59;2.47;;;2.28;;
7737;SDS011;29398;45.328;5.558;2022-08-19T03:24:01;2.60;;;2.40;;
7737;SDS011;29398;45.328;5.558;2022-08-19T03:25:05;2.20;;;2.10;;
7737;SDS011;29398;45.328;5.558;2022-08-19T03:26:07;2.10;;;2.00;;
7737;SDS011;29398;45.328;5.558;2022-08-19T03:27:09;2.08;;;1.98;;
7737;SDS011;29398;45.328;5.558;2022-08-19T03:28:12;2.35;;;2.20;;
7737;SDS011;29398;45.328;5.558;2022-08-19T03:29:15;2.40;;;2.20;;
7737;SDS011;29398;45.328;5.558;2022-08-19T03:30:17;2.35;;;2.15;;
7737;SDS011;29398;45.328;5.558;2022-08-19T03:31:20;2.35;;;2.25;;
7737;SDS011;29398;45.328;5.558;2022-08-19T03:32:22;1.98;;;1.88;;
7737;SDS011;29398;45.328;5.558;2022-08-19T03:33:25;2.20;;;2.10;;
7737;SDS011;29398;45.328;5.558;2022-08-19T03:34:28;1.98;;;1.88;;
7737;SDS011;29398;45.328;5.558;2022-08-19T03:35:31;1.98;;;1.88;;
7737;SDS011;29398;45.328;5.558;2022-08-19T03:36:33;2.13;;;2.03;;
7737;SDS011;29398;45.328;5.558;2022-08-19T03:37:35;2.20;;;1.98;;
7737;SDS011;29398;45.328;5.558;2022-08-19T03:38:37;1.90;;;1.80;;
7737;SDS011;29398;45.328;5.558;2022-08-19T03:39:40;2.10;;;2.00;;
7737;SDS011;29398;45.328;5.558;2022-08-19T03:40:42;2.10;;;2.00;;
7737;SDS011;29398;45.328;5.558;2022-08-19T03:41:44;2.08;;;1.85;;
7737;SDS011;29398;45.328;5.558;2022-08-19T03:42:47;2.00;;;1.90;;
7737;SDS011;29398;45.328;5.558;2022-08-19T03:43:51;1.90;;;1.70;;
7737;SDS011;29398;45.328;5.558;2022-08-19T03:44:53;1.98;;;1.88;;
7737;SDS011;29398;45.328;5.558;2022-08-19T03:46:02;1.98;;;1.88;;
7737;SDS011;29398;45.328;5.558;2022-08-19T03:47:05;2.17;;;2.05;;
7737;SDS011;29398;45.328;5.558;2022-08-19T03:48:07;1.98;;;1.88;;
7737;SDS011;29398;45.328;5.558;2022-08-19T03:49:09;1.95;;;1.77;;
7737;SDS011;29398;45.328;5.558;2022-08-19T03:50:11;1.98;;;1.88;;
7737;SDS011;29398;45.328;5.558;2022-08-19T03:51:15;1.90;;;1.80;;
7737;SDS011;29398;45.328;5.558;2022-08-19T03:52:19;1.98;;;1.88;;
7737;SDS011;29398;45.328;5.558;2022-08-19T03:53:20;1.85;;;1.75;;
7737;SDS011;29398;45.328;5.558;2022-08-19T03:54:23;1.90;;;1.65;;
7737;SDS011;29398;45.328;5.558;2022-08-19T03:55:25;1.80;;;1.70;;
7737;SDS011;29398;45.328;5.558;2022-08-19T03:56:27;1.90;;;1.80;;
7737;SDS011;29398;45.328;5.558;2022-08-19T03:57:29;2.00;;;1.90;;
7737;SDS011;29398;45.328;5.558;2022-08-19T03:58:32;1.90;;;1.80;;
7737;SDS011;29398;45.328;5.558;2022-08-19T03:59:35;2.63;;;1.95;;
7737;SDS011;29398;45.328;5.558;2022-08-19T04:00:41;2.58;;;1.95;;
7737;SDS011;29398;45.328;5.558;2022-08-19T04:01:42;1.90;;;1.80;;
7737;SDS011;29398;45.328;5.558;2022-08-19T04:02:44;2.75;;;1.80;;
7737;SDS011;29398;45.328;5.558;2022-08-19T04:03:47;2.20;;;2.10;;
7737;SDS011;29398;45.328;5.558;2022-08-19T04:04:49;1.88;;;1.77;;
7737;SDS011;29398;45.328;5.558;2022-08-19T04:05:55;1.90;;;1.80;;
7737;SDS011;29398;45.328;5.558;2022-08-19T04:06:56;2.70;;;2.00;;
7737;SDS011;29398;45.328;5.558;2022-08-19T04:07:58;1.92;;;1.83;;
7737;SDS011;29398;45.328;5.558;2022-08-19T04:09:01;2.40;;;2.17;;
7737;SDS011;29398;45.328;5.558;2022-08-19T04:10:05;2.30;;;2.13;;
7737;SDS011;29398;45.328;5.558;2022-08-19T04:11:08;2.35;;;2.17;;
7737;SDS011;29398;45.328;5.558;2022-08-19T04:12:09;2.60;;;2.40;;
7737;SDS011;29398;45.328;5.558;2022-08-19T04:13:11;2.28;;;2.17;;
7737;SDS011;29398;45.328;5.558;2022-08-19T04:14:13;2.50;;;2.30;;
7737;SDS011;29398;45.328;5.558;2022-08-19T04:15:19;2.70;;;2.50;;
7737;SDS011;29398;45.328;5.558;2022-08-19T04:16:22;2.85;;;2.65;;
7737;SDS011;29398;45.328;5.558;2022-08-19T04:17:29;2.30;;;2.20;;
7737;SDS011;29398;45.328;5.558;2022-08-19T04:18:30;2.78;;;2.65;;
7737;SDS011;29398;45.328;5.558;2022-08-19T04:19:33;4.78;;;2.80;;
7737;SDS011;29398;45.328;5.558;2022-08-19T04:20:39;2.90;;;2.70;;
7737;SDS011;29398;45.328;5.558;2022-08-19T04:21:42;2.80;;;2.60;;
7737;SDS011;29398;45.328;5.558;2022-08-19T04:22:47;2.60;;;2.40;;
7737;SDS011;29398;45.328;5.558;2022-08-19T04:23:49;2.72;;;2.53;;
7737;SDS011;29398;45.328;5.558;2022-08-19T04:24:51;2.78;;;2.58;;
7737;SDS011;29398;45.328;5.558;2022-08-19T04:25:53;2.92;;;2.72;;
7737;SDS011;29398;45.328;5.558;2022-08-19T04:26:55;2.97;;;2.78;;
7737;SDS011;29398;45.328;5.558;2022-08-19T04:27:57;3.10;;;2.88;;
7737;SDS011;29398;45.328;5.558;2022-08-19T04:28:58;2.65;;;2.45;;
7737;SDS011;29398;45.328;5.558;2022-08-19T04:30:01;2.83;;;2.63;;
7737;SDS011;29398;45.328;5.558;2022-08-19T04:31:04;3.00;;;2.80;;
7737;SDS011;29398;45.328;5.558;2022-08-19T04:32:08;3.42;;;2.80;;
7737;SDS011;29398;45.328;5.558;2022-08-19T04:33:09;2.92;;;2.72;;
7737;SDS011;29398;45.328;5.558;2022-08-19T04:34:13;3.15;;;2.95;;
7737;SDS011;29398;45.328;5.558;2022-08-19T04:35:16;2.85;;;2.65;;
7737;SDS011;29398;45.328;5.558;2022-08-19T04:36:18;3.15;;;2.92;;
7737;SDS011;29398;45.328;5.558;2022-08-19T04:37:22;2.97;;;2.78;;
7737;SDS011;29398;45.328;5.558;2022-08-19T04:38:24;2.97;;;2.65;;
7737;SDS011;29398;45.328;5.558;2022-08-19T04:39:27;2.90;;;2.70;;
7737;SDS011;29398;45.328;5.558;2022-08-19T04:40:45;3.22;;;3.03;;
7737;SDS011;29398;45.328;5.558;2022-08-19T04:42:06;3.45;;;2.80;;
7737;SDS011;29398;45.328;5.558;2022-08-19T04:43:26;3.28;;;3.08;;
7737;SDS011;29398;45.328;5.558;2022-08-19T04:44:29;3.00;;;2.80;;
7737;SDS011;29398;45.328;5.558;2022-08-19T04:45:30;2.83;;;2.67;;
7737;SDS011;29398;45.328;5.558;2022-08-19T04:46:34;3.15;;;2.92;;
7737;SDS011;29398;45.328;5.558;2022-08-19T04:47:35;2.80;;;2.60;;
7737;SDS011;29398;45.328;5.558;2022-08-19T04:48:38;2.97;;;2.78;;
7737;SDS011;29398;45.328;5.558;2022-08-19T04:49:41;3.55;;;3.35;;
7737;SDS011;29398;45.328;5.558;2022-08-19T04:50:43;3.00;;;2.80;;
7737;SDS011;29398;45.328;5.558;2022-08-19T04:51:46;3.22;;;3.00;;
7737;SDS011;29398;45.328;5.558;2022-08-19T04:52:49;2.90;;;2.70;;
7737;SDS011;29398;45.328;5.558;2022-08-19T04:53:53;3.10;;;2.90;;
7737;SDS011;29398;45.328;5.558;2022-08-19T04:54:54;3.20;;;3.00;;
7737;SDS011;29398;45.328;5.558;2022-08-19T04:55:56;3.17;;;2.90;;
7737;SDS011;29398;45.328;5.558;2022-08-19T04:56:58;3.20;;;3.00;;
7737;SDS011;29398;45.328;5.558;2022-08-19T04:58:00;2.53;;;2.42;;
7737;SDS011;29398;45.328;5.558;2022-08-19T04:59:02;3.13;;;2.90;;
7737;SDS011;29398;45.328;5.558;2022-08-19T05:00:05;3.75;;;3.30;;
7737;SDS011;29398;45.328;5.558;2022-08-19T05:01:08;3.03;;;2.80;;
7737;SDS011;29398;45.328;5.558;2022-08-19T05:02:12;2.88;;;2.67;;
7737;SDS011;29398;45.328;5.558;2022-08-19T05:03:13;3.75;;;2.90;;
7737;SDS011;29398;45.328;5.558;2022-08-19T05:04:17;2.88;;;2.65;;
7737;SDS011;29398;45.328;5.558;2022-08-19T05:05:20;3.38;;;3.15;;
7737;SDS011;29398;45.328;5.558;2022-08-19T05:06:22;3.33;;;3.08;;
7737;SDS011;29398;45.328;5.558;2022-08-19T05:07:25;3.20;;;3.00;;
7737;SDS011;29398;45.328;5.558;2022-08-19T05:08:28;3.25;;;3.05;;
7737;SDS011;29398;45.328;5.558;2022-08-19T05:09:30;3.17;;;2.92;;
7737;SDS011;29398;45.328;5.558;2022-08-19T05:10:34;3.28;;;3.08;;
7737;SDS011;29398;45.328;5.558;2022-08-19T05:11:36;3.13;;;2.63;;
7737;SDS011;29398;45.328;5.558;2022-08-19T05:12:39;2.90;;;2.65;;
7737;SDS011;29398;45.328;5.558;2022-08-19T05:13:41;3.10;;;2.80;;
7737;SDS011;29398;45.328;5.558;2022-08-19T05:14:44;3.50;;;3.00;;
7737;SDS011;29398;45.328;5.558;2022-08-19T05:15:53;2.90;;;2.70;;
7737;SDS011;29398;45.328;5.558;2022-08-19T05:16:54;4.78;;;2.80;;
7737;SDS011;29398;45.328;5.558;2022-08-19T05:17:58;3.95;;;3.03;;
7737;SDS011;29398;45.328;5.558;2022-08-19T05:20:37;2.83;;;2.63;;
7737;SDS011;29398;45.328;5.558;2022-08-19T05:22:08;3.10;;;2.83;;
7737;SDS011;29398;45.328;5.558;2022-08-19T05:23:28;4.18;;;2.70;;
7737;SDS011;29398;45.328;5.558;2022-08-19T05:24:30;4.63;;;2.80;;
7737;SDS011;29398;45.328;5.558;2022-08-19T05:25:34;3.60;;;2.65;;
7737;SDS011;29398;45.328;5.558;2022-08-19T05:26:37;3.25;;;2.95;;
7737;SDS011;29398;45.328;5.558;2022-08-19T05:27:38;3.38;;;3.08;;
7737;SDS011;29398;45.328;5.558;2022-08-19T05:28:41;3.20;;;2.90;;
7737;SDS011;29398;45.328;5.558;2022-08-19T05:29:42;3.20;;;2.90;;
7737;SDS011;29398;45.328;5.558;2022-08-19T05:30:44;3.58;;;2.78;;
7737;SDS011;29398;45.328;5.558;2022-08-19T05:31:46;2.90;;;2.70;;
7737;SDS011;29398;45.328;5.558;2022-08-19T05:32:50;3.10;;;2.80;;
7737;SDS011;29398;45.328;5.558;2022-08-19T05:33:53;4.97;;;3.25;;
7737;SDS011;29398;45.328;5.558;2022-08-19T05:34:56;3.28;;;2.97;;
7737;SDS011;29398;45.328;5.558;2022-08-19T05:35:58;4.05;;;3.30;;
7737;SDS011;29398;45.328;5.558;2022-08-19T05:37:00;3.42;;;3.13;;
7737;SDS011;29398;45.328;5.558;2022-08-19T05:38:04;3.50;;;2.78;;
7737;SDS011;29398;45.328;5.558;2022-08-19T05:39:07;3.40;;;3.10;;
7737;SDS011;29398;45.328;5.558;2022-08-19T05:40:12;3.15;;;2.85;;
7737;SDS011;29398;45.328;5.558;2022-08-19T05:41:13;3.00;;;2.75;;
7737;SDS011;29398;45.328;5.558;2022-08-19T05:42:17;4.00;;;2.97;;
7737;SDS011;29398;45.328;5.558;2022-08-19T05:43:20;3.22;;;3.03;;
7737;SDS011;29398;45.328;5.558;2022-08-19T05:44:23;3.38;;;2.88;;
7737;SDS011;29398;45.328;5.558;2022-08-19T05:45:25;3.47;;;3.20;;
7737;SDS011;29398;45.328;5.558;2022-08-19T05:46:28;3.65;;;3.35;;
7737;SDS011;29398;45.328;5.558;2022-08-19T05:47:29;3.72;;;3.38;;
7737;SDS011;29398;45.328;5.558;2022-08-19T05:48:32;4.75;;;3.03;;
7737;SDS011;29398;45.328;5.558;2022-08-19T05:49:35;3.58;;;3.30;;
7737;SDS011;29398;45.328;5.558;2022-08-19T05:50:37;4.00;;;3.42;;
7737;SDS011;29398;45.328;5.558;2022-08-19T05:51:39;3.05;;;2.85;;
7737;SDS011;29398;45.328;5.558;2022-08-19T05:52:41;3.58;;;3.28;;
7737;SDS011;29398;45.328;5.558;2022-08-19T05:53:43;3.60;;;3.33;;
7737;SDS011;29398;45.328;5.558;2022-08-19T05:54:46;3.35;;;3.13;;
7737;SDS011;29398;45.328;5.558;2022-08-19T05:55:48;3.60;;;3.30;;
7737;SDS011;29398;45.328;5.558;2022-08-19T05:56:50;4.28;;;3.30;;
7737;SDS011;29398;45.328;5.558;2022-08-19T05:57:52;3.33;;;3.13;;
7737;SDS011;29398;45.328;5.558;2022-08-19T05:58:54;4.30;;;3.90;;
7737;SDS011;29398;45.328;5.558;2022-08-19T05:59:55;3.47;;;3.08;;
7737;SDS011;29398;45.328;5.558;2022-08-19T06:00:57;4.20;;;3.90;;
7737;SDS011;29398;45.328;5.558;2022-08-19T06:01:58;3.97;;;3.63;;
7737;SDS011;29398;45.328;5.558;2022-08-19T06:03:00;4.07;;;3.67;;
7737;SDS011;29398;45.328;5.558;2022-08-19T06:04:03;4.05;;;3.65;;
7737;SDS011;29398;45.328;5.558;2022-08-19T06:05:08;3.72;;;3.45;;
7737;SDS011;29398;45.328;5.558;2022-08-19T06:06:11;3.67;;;3.38;;
7737;SDS011;29398;45.328;5.558;2022-08-19T06:07:14;3.97;;;3.67;;
7737;SDS011;29398;45.328;5.558;2022-08-19T06:08:17;3.83;;;3.42;;
7737;SDS011;29398;45.328;5.558;2022-08-19T06:09:19;4.20;;;3.90;;
7737;SDS011;29398;45.328;5.558;2022-08-19T06:10:22;3.78;;;3.55;;
7737;SDS011;29398;45.328;5.558;2022-08-19T06:11:24;4.03;;;3.65;;
7737;SDS011;29398;45.328;5.558;2022-08-19T06:12:34;4.07;;;3.78;;
7737;SDS011;29398;45.328;5.558;2022-08-19T06:13:37;3.55;;;3.25;;
7737;SDS011;29398;45.328;5.558;2022-08-19T06:14:38;4.60;;;3.67;;
7737;SDS011;29398;45.328;5.558;2022-08-19T06:15:41;3.63;;;3.33;;
7737;SDS011;29398;45.328;5.558;2022-08-19T06:16:44;3.90;;;3.50;;
7737;SDS011;29398;45.328;5.558;2022-08-19T06:17:46;4.38;;;3.97;;
7737;SDS011;29398;45.328;5.558;2022-08-19T06:18:48;3.88;;;3.58;;
7737;SDS011;29398;45.328;5.558;2022-08-19T06:19:52;3.45;;;3.17;;
7737;SDS011;29398;45.328;5.558;2022-08-19T06:20:55;3.33;;;3.03;;
7737;SDS011;29398;45.328;5.558;2022-08-19T06:21:58;3.92;;;3.63;;
7737;SDS011;29398;45.328;5.558;2022-08-19T06:23:00;3.95;;;3.65;;
7737;SDS011;29398;45.328;5.558;2022-08-19T06:24:02;4.40;;;3.50;;
7737;SDS011;29398;45.328;5.558;2022-08-19T06:25:05;4.05;;;3.17;;
7737;SDS011;29398;45.328;5.558;2022-08-19T06:26:11;3.60;;;3.40;;
7737;SDS011;29398;45.328;5.558;2022-08-19T06:27:12;3.38;;;3.17;;